createdAt,value
2019-02-20T00:01:51.170Z,98745.53
2019-02-20T00:04:19.447Z,98753.48
2019-02-20T00:06:47.905Z,98763.14
2019-02-20T00:09:16.209Z,98762.92
2019-02-20T00:11:44.547Z,98751.30
2019-02-20T00:14:12.915Z,98746.81
2019-02-20T00:16:41.273Z,98752.20
2019-02-20T00:19:10.293Z,98747.92
2019-02-20T00:21:38.638Z,98755.81
2019-02-20T00:24:06.939Z,98759.42
2019-02-20T00:26:35.244Z,98763.03
2019-02-20T00:29:03.587Z,98767.08
2019-02-20T00:31:31.873Z,98786.09
2019-02-20T00:34:00.530Z,98788.16
2019-02-20T00:36:29.209Z,98789.47
2019-02-20T00:38:57.536Z,98783.28
2019-02-20T00:41:25.854Z,98787.63
2019-02-20T00:43:56.097Z,98796.09
2019-02-20T00:46:28.742Z,98789.61
2019-02-20T00:49:04.406Z,98786.86
2019-02-20T00:51:34.345Z,98776.87
2019-02-20T00:54:04.291Z,98767.75
2019-02-20T00:56:32.608Z,98770.81
2019-02-20T00:59:00.915Z,98771.19
2019-02-20T01:01:29.245Z,98774.91
2019-02-20T01:03:57.543Z,98772.09
2019-02-20T01:06:25.853Z,98766.47
2019-02-20T01:08:54.234Z,98773.58
2019-02-20T01:11:22.548Z,98780.33
2019-02-20T01:13:50.893Z,98773.36
2019-02-20T01:16:19.177Z,98783.17
2019-02-20T01:18:47.659Z,98788.13
2019-02-20T01:21:16.935Z,98790.13
2019-02-20T01:23:45.256Z,98774.60
2019-02-20T01:26:13.563Z,98785.68
2019-02-20T01:28:41.864Z,98785.41
2019-02-20T01:31:10.168Z,98791.95
2019-02-20T01:33:38.560Z,98790.38
2019-02-20T01:36:06.872Z,98792.66
2019-02-20T01:38:35.210Z,98797.30
2019-02-20T01:41:03.514Z,98779.83
2019-02-20T01:43:32.096Z,98786.23
2019-02-20T01:46:00.485Z,98787.00
2019-02-20T01:48:28.794Z,98777.34
2019-02-20T01:50:57.141Z,98786.41
2019-02-20T01:53:25.740Z,98784.91
2019-02-20T01:55:54.039Z,98783.82
2019-02-20T01:58:22.359Z,98786.48
2019-02-20T02:00:50.662Z,98786.86
2019-02-20T02:03:18.991Z,98788.91
2019-02-20T02:05:47.298Z,98793.79
2019-02-20T02:08:15.631Z,98797.57
2019-02-20T02:10:43.932Z,98799.61
2019-02-20T02:13:12.639Z,98795.75
2019-02-20T02:15:40.893Z,98799.91
2019-02-20T02:18:09.197Z,98801.66
2019-02-20T02:20:37.539Z,98797.27
2019-02-20T02:23:05.906Z,98805.81
2019-02-20T02:25:34.247Z,98801.58
2019-02-20T02:28:02.560Z,98805.45
2019-02-20T02:30:30.939Z,98808.60
2019-02-20T02:32:59.265Z,98799.42
2019-02-20T02:35:27.569Z,98802.39
2019-02-20T02:37:56.019Z,98794.85
2019-02-20T02:40:24.349Z,98794.52
2019-02-20T02:42:52.675Z,98799.33
2019-02-20T02:45:20.998Z,98807.91
2019-02-20T02:47:49.320Z,98809.47
2019-02-20T02:50:17.657Z,98811.83
2019-02-20T02:52:45.972Z,98807.87
2019-02-20T02:55:14.351Z,98820.42
2019-02-20T02:57:42.683Z,98819.83
2019-02-20T03:00:11.431Z,98819.69
2019-02-20T03:02:39.771Z,98821.89
2019-02-20T03:05:09.017Z,98819.28
2019-02-20T03:07:37.328Z,98819.29
2019-02-20T03:10:07.526Z,98818.39
2019-02-20T03:12:35.831Z,98830.86
2019-02-20T03:15:06.438Z,98829.23
2019-02-20T03:17:34.735Z,98832.20
2019-02-20T03:20:03.483Z,98832.98
2019-02-20T03:22:31.803Z,98839.42
2019-02-20T03:25:00.465Z,98835.28
2019-02-20T03:27:28.799Z,98833.77
2019-02-20T03:29:57.112Z,98848.28
2019-02-20T03:32:25.724Z,98834.11
2019-02-20T03:34:54.450Z,98842.21
2019-02-20T03:37:22.774Z,98843.80
2019-02-20T03:39:51.484Z,98835.63
2019-02-20T03:42:19.784Z,98840.47
2019-02-20T03:44:48.098Z,98839.91
2019-02-20T03:47:16.440Z,98846.95
2019-02-20T03:49:44.744Z,98846.76
2019-02-20T03:52:13.086Z,98840.42
2019-02-20T03:54:41.400Z,98840.98
2019-02-20T03:57:09.698Z,98843.78
2019-02-20T03:59:38.027Z,98842.17
2019-02-20T04:02:06.343Z,98843.23
2019-02-20T04:04:34.952Z,98835.45
2019-02-20T04:07:03.254Z,98832.12
2019-02-20T04:09:31.556Z,98845.59
2019-02-20T04:11:59.900Z,98849.92
2019-02-20T04:14:28.212Z,98848.34
2019-02-20T04:16:56.549Z,98856.14
2019-02-20T04:19:24.868Z,98855.83
2019-02-20T04:21:53.223Z,98858.20
2019-02-20T04:24:21.831Z,98856.94
2019-02-20T04:26:50.137Z,98858.23
2019-02-20T04:29:18.482Z,98862.27
2019-02-20T04:31:46.796Z,98863.00
2019-02-20T04:34:15.462Z,98870.33
2019-02-20T04:36:44.155Z,98873.75
2019-02-20T04:39:12.549Z,98869.42
2019-02-20T04:41:40.878Z,98872.87
2019-02-20T04:44:09.178Z,98866.66
2019-02-20T04:46:37.485Z,98860.73
2019-02-20T04:49:05.812Z,98855.80
2019-02-20T04:51:34.115Z,98864.50
2019-02-20T04:54:02.450Z,98867.92
2019-02-20T04:56:30.754Z,98867.96
2019-02-20T04:59:01.987Z,98866.53
2019-02-20T05:01:30.382Z,98870.67
2019-02-20T05:03:58.695Z,98872.41
2019-02-20T05:06:27.407Z,98878.51
2019-02-20T05:08:55.707Z,98856.03
2019-02-20T05:11:24.009Z,98877.41
2019-02-20T05:13:52.411Z,98877.51
2019-02-20T05:16:21.129Z,98878.28
2019-02-20T05:18:49.455Z,98880.18
2019-02-20T05:21:18.095Z,98881.94
2019-02-20T05:23:46.442Z,98878.56
2019-02-20T05:26:14.816Z,98881.02
2019-02-20T05:28:44.107Z,98887.17
2019-02-20T05:31:12.506Z,98890.31
2019-02-20T05:33:40.813Z,98887.24
2019-02-20T05:36:09.728Z,98891.24
2019-02-20T05:38:38.042Z,98888.67
2019-02-20T05:41:06.688Z,98889.12
2019-02-20T05:43:35.205Z,98884.48
2019-02-20T05:46:03.505Z,98888.52
2019-02-20T05:48:31.855Z,98896.25
2019-02-20T05:51:00.165Z,98897.14
2019-02-20T05:53:28.494Z,98897.69
2019-02-20T05:55:56.832Z,98900.41
2019-02-20T05:58:25.148Z,98907.15
2019-02-20T06:00:53.470Z,98915.38
2019-02-20T06:03:21.771Z,98917.56
2019-02-20T06:05:50.082Z,98926.24
2019-02-20T06:08:18.400Z,98933.43
2019-02-20T06:10:46.709Z,98941.29
2019-02-20T06:13:15.040Z,98936.53
2019-02-20T06:15:43.718Z,98937.39
2019-02-20T06:18:12.099Z,98944.15
2019-02-20T06:20:40.414Z,98944.48
2019-02-20T06:23:08.718Z,98945.45
2019-02-20T06:25:37.045Z,98946.91
2019-02-20T06:28:05.417Z,98950.54
2019-02-20T06:30:33.723Z,98955.14
2019-02-20T06:33:02.050Z,98950.98
2019-02-20T06:35:30.353Z,98957.94
2019-02-20T06:37:58.774Z,98956.69
2019-02-20T06:40:27.460Z,98953.39
2019-02-20T06:42:56.123Z,98957.14
2019-02-20T06:45:24.456Z,98950.36
2019-02-20T06:47:52.843Z,98949.94
2019-02-20T06:50:21.184Z,98946.16
2019-02-20T06:52:49.483Z,98948.04
2019-02-20T06:55:17.804Z,98947.16
2019-02-20T06:57:46.122Z,98958.19
2019-02-20T07:00:14.793Z,98957.87
2019-02-20T07:02:43.410Z,98960.60
2019-02-20T07:05:26.907Z,98966.81
2019-02-20T07:08:14.711Z,98964.63
2019-02-20T07:10:55.755Z,98975.41
2019-02-20T07:13:27.246Z,98974.84
2019-02-20T07:16:08.076Z,98976.83
2019-02-20T07:18:39.591Z,98978.11
2019-02-20T07:21:29.117Z,98979.57
2019-02-20T07:24:09.769Z,98986.09
2019-02-20T07:27:00.800Z,98994.83
2019-02-20T07:29:51.994Z,99002.63
2019-02-20T07:32:20.368Z,98999.17
2019-02-20T07:34:48.674Z,99005.90
2019-02-20T07:37:16.997Z,99002.44
2019-02-20T07:39:45.309Z,98995.14
2019-02-20T07:42:13.646Z,98996.95
2019-02-20T07:44:42.287Z,99012.00
2019-02-20T07:47:10.592Z,99011.90
2019-02-20T07:49:38.927Z,99002.66
2019-02-20T07:52:07.282Z,99006.36
2019-02-20T07:54:35.648Z,99019.56
2019-02-20T07:57:03.908Z,99020.63
2019-02-20T07:59:32.711Z,99031.17
2019-02-20T08:02:01.097Z,99022.86
2019-02-20T08:04:29.437Z,99024.28
2019-02-20T08:06:57.757Z,99024.55
2019-02-20T08:09:26.068Z,99037.80
2019-02-20T08:11:54.423Z,99033.97
2019-02-20T08:14:22.963Z,99029.52
2019-02-20T08:16:52.694Z,99038.80
2019-02-20T08:19:22.068Z,99042.47
2019-02-20T08:21:50.457Z,99042.47
2019-02-20T08:24:18.799Z,99046.20
2019-02-20T08:26:47.105Z,99044.61
2019-02-20T08:29:15.405Z,99049.41
2019-02-20T08:31:43.723Z,99052.25
2019-02-20T08:34:12.040Z,99050.37
2019-02-20T08:36:40.424Z,99052.72
2019-02-20T08:39:08.727Z,99050.34
2019-02-20T08:41:37.057Z,99049.22
2019-02-20T08:44:06.043Z,99048.77
2019-02-20T08:46:34.443Z,99048.66
2019-02-20T08:49:02.755Z,99058.61
2019-02-20T08:51:31.059Z,99060.17
2019-02-20T08:53:59.384Z,99061.41
2019-02-20T08:56:27.687Z,99060.56
2019-02-20T08:58:56.024Z,99070.44
2019-02-20T09:01:24.328Z,99067.61
2019-02-20T09:03:52.630Z,99070.32
2019-02-20T09:06:20.955Z,99068.12
2019-02-20T09:08:49.258Z,99072.56
2019-02-20T09:11:17.593Z,99074.43
2019-02-20T09:13:45.904Z,99068.41
2019-02-20T09:16:14.287Z,99075.72
2019-02-20T09:18:42.612Z,99074.33
2019-02-20T09:21:10.914Z,99070.76
2019-02-20T09:23:39.257Z,99070.76
2019-02-20T09:26:07.624Z,99075.64
2019-02-20T09:28:37.192Z,99076.52
2019-02-20T09:31:05.979Z,99078.73
2019-02-20T09:33:34.276Z,99081.39
2019-02-20T09:36:02.896Z,99084.90
2019-02-20T09:38:31.213Z,99084.92
2019-02-20T09:40:59.512Z,99084.28
2019-02-20T09:43:27.832Z,99077.21
2019-02-20T09:45:56.150Z,99077.60
2019-02-20T09:48:24.505Z,99082.88
2019-02-20T09:50:52.815Z,99082.80
2019-02-20T09:53:21.113Z,99086.57
2019-02-20T09:55:51.851Z,99083.98
2019-02-20T09:58:19.465Z,99088.70
2019-02-20T10:00:47.811Z,99089.05
2019-02-20T10:03:16.124Z,99089.05
2019-02-20T10:05:44.752Z,99087.45
2019-02-20T10:08:13.081Z,99088.19
2019-02-20T10:10:41.393Z,99091.50
2019-02-20T10:13:11.547Z,99089.17
2019-02-20T10:15:39.839Z,99091.27
2019-02-20T10:18:08.150Z,99096.34
2019-02-20T10:20:36.470Z,99094.80
2019-02-20T10:23:05.180Z,99090.97
2019-02-20T10:25:33.506Z,99085.31
2019-02-20T10:28:01.830Z,99091.17
2019-02-20T10:30:30.212Z,99084.44
2019-02-20T10:32:58.542Z,99086.00
2019-02-20T10:35:27.176Z,99081.39
2019-02-20T10:37:55.563Z,99089.77
2019-02-20T10:40:23.877Z,99071.09
2019-02-20T10:42:52.521Z,99078.27
2019-02-20T10:45:20.834Z,99081.23
2019-02-20T10:47:49.205Z,99078.91
2019-02-20T10:50:17.524Z,99078.41
2019-02-20T10:52:45.829Z,99076.42
2019-02-20T10:55:14.222Z,99077.45
2019-02-20T10:57:42.526Z,99076.42
2019-02-20T11:00:24.173Z,99070.64
2019-02-20T11:02:51.502Z,99065.25
2019-02-20T11:05:19.884Z,99073.28
2019-02-20T11:07:48.270Z,99077.97
2019-02-20T11:10:16.565Z,99073.34
2019-02-20T11:12:44.903Z,99078.26
2019-02-20T11:15:13.291Z,99083.73
2019-02-20T11:17:41.627Z,99080.08
2019-02-20T11:20:13.584Z,99079.01
2019-02-20T11:22:41.824Z,99072.32
2019-02-20T11:25:12.102Z,99082.05
2019-02-20T11:27:40.417Z,99085.05
2019-02-20T11:30:21.128Z,99066.09
2019-02-20T11:32:49.430Z,99071.38
2019-02-20T11:35:18.037Z,99071.36
2019-02-20T11:37:46.366Z,99066.66
2019-02-20T11:40:14.663Z,99071.53
2019-02-20T11:42:42.978Z,99060.92
2019-02-20T11:45:17.350Z,99063.31
2019-02-20T11:47:45.664Z,99057.73
2019-02-20T11:50:14.041Z,99057.15
2019-02-20T11:52:43.215Z,99058.45
2019-02-20T11:55:13.955Z,99054.69
2019-02-20T11:57:42.257Z,99048.39
2019-02-20T12:00:18.536Z,99048.98
2019-02-20T12:02:46.920Z,99042.61
2019-02-20T12:05:15.322Z,99047.27
2019-02-20T12:07:43.683Z,99047.36
2019-02-20T12:10:15.009Z,99057.48
2019-02-20T12:12:43.530Z,99052.62
2019-02-20T12:15:12.110Z,99049.62
2019-02-20T12:17:40.606Z,99049.61
2019-02-20T12:20:09.285Z,99054.70
2019-02-20T12:22:37.967Z,99047.37
2019-02-20T12:25:08.313Z,99059.66
2019-02-20T12:27:36.613Z,99057.04
2019-02-20T12:30:07.531Z,99045.67
2019-02-20T12:32:35.840Z,99045.77
2019-02-20T12:35:05.802Z,99052.62
2019-02-20T12:37:34.118Z,99047.41
2019-02-20T12:40:02.424Z,99043.13
2019-02-20T12:42:30.744Z,99040.13
2019-02-20T12:44:59.045Z,99034.00
2019-02-20T12:47:27.378Z,99037.65
2019-02-20T12:49:55.687Z,99038.80
2019-02-20T12:52:23.992Z,99036.91
2019-02-20T12:54:52.318Z,99040.80
2019-02-20T12:57:20.697Z,99036.69
2019-02-20T12:59:49.236Z,99030.94
2019-02-20T13:02:17.541Z,99036.73
2019-02-20T13:04:46.304Z,99035.88
2019-02-20T13:07:14.610Z,99032.87
2019-02-20T13:09:42.998Z,99025.06
2019-02-20T13:12:11.431Z,99022.25
2019-02-20T13:14:40.059Z,99033.30
2019-02-20T13:17:08.388Z,99036.44
2019-02-20T13:19:36.897Z,99032.86
2019-02-20T13:22:05.271Z,99039.46
2019-02-20T13:24:33.668Z,99039.27
2019-02-20T13:27:07.562Z,99032.63
2019-02-20T13:29:32.089Z,99032.21
2019-02-20T13:32:00.390Z,99044.05
2019-02-20T13:34:28.699Z,99031.36
2019-02-20T13:36:57.044Z,99045.67
2019-02-20T13:39:25.340Z,99038.77
2019-02-20T13:41:53.695Z,99029.94
2019-02-20T13:44:21.993Z,99040.44
2019-02-20T13:46:50.373Z,99045.75
2019-02-20T13:49:18.697Z,99041.11
2019-02-20T13:51:47.082Z,99035.32
2019-02-20T13:54:15.481Z,99025.55
2019-02-20T13:56:43.856Z,99036.21
2019-02-20T13:59:13.097Z,99038.24
2019-02-20T14:01:41.442Z,99047.56
2019-02-20T14:04:10.124Z,99035.14
2019-02-20T14:06:38.809Z,99033.03
2019-02-20T14:09:07.597Z,99041.06
2019-02-20T14:11:35.895Z,99039.90
2019-02-20T14:14:04.499Z,99038.88
2019-02-20T14:16:32.809Z,99036.05
2019-02-20T14:19:01.212Z,99043.61
2019-02-20T14:21:30.329Z,99038.53
2019-02-20T14:23:58.674Z,99043.23
2019-02-20T14:26:26.987Z,99041.36
2019-02-20T14:28:55.573Z,99050.33
2019-02-20T14:31:23.888Z,99042.07
2019-02-20T14:33:52.197Z,99040.73
2019-02-20T14:36:20.588Z,99042.34
2019-02-20T14:38:49.268Z,99040.22
2019-02-20T14:41:17.605Z,99039.38
2019-02-20T14:43:46.277Z,99035.62
2019-02-20T14:46:14.858Z,99030.52
2019-02-20T14:48:43.184Z,99027.86
2019-02-20T14:51:11.480Z,99015.27
2019-02-20T14:53:39.816Z,99032.80
2019-02-20T14:56:08.298Z,99028.33
2019-02-20T14:58:36.608Z,99028.02
2019-02-20T15:01:06.132Z,99036.14
2019-02-20T15:03:34.681Z,99033.87
2019-02-20T15:06:03.093Z,99028.55
2019-02-20T15:08:31.398Z,99036.73
2019-02-20T15:10:59.699Z,99033.24
2019-02-20T15:13:28.027Z,99031.27
2019-02-20T15:15:56.675Z,99028.45
2019-02-20T15:18:25.174Z,99029.52
2019-02-20T15:20:53.466Z,99034.90
2019-02-20T15:23:21.774Z,99031.85
2019-02-20T15:25:50.409Z,99027.94
2019-02-20T15:28:19.083Z,99017.92
2019-02-20T15:30:47.418Z,99027.82
2019-02-20T15:33:15.729Z,99020.08
2019-02-20T15:35:44.048Z,99028.08
2019-02-20T15:38:12.442Z,99021.29
2019-02-20T15:40:41.112Z,99027.55
2019-02-20T15:43:09.787Z,99027.95
2019-02-20T15:45:38.371Z,99027.24
2019-02-20T15:48:07.049Z,99023.38
2019-02-20T15:50:35.378Z,99029.66
2019-02-20T15:53:03.692Z,99024.95
2019-02-20T15:55:32.031Z,99037.09
2019-02-20T15:58:00.379Z,99031.86
2019-02-20T16:00:28.696Z,99034.63
2019-02-20T16:02:57.764Z,99030.42
2019-02-20T16:05:26.071Z,99035.68
2019-02-20T16:07:54.370Z,99038.50
2019-02-20T16:10:22.694Z,99039.63
2019-02-20T16:12:51.002Z,99035.64
2019-02-20T16:15:19.374Z,99037.45
2019-02-20T16:17:47.762Z,99030.45
2019-02-20T16:20:16.318Z,99040.83
2019-02-20T16:22:44.649Z,99045.33
2019-02-20T16:25:16.993Z,99043.73
2019-02-20T16:27:47.868Z,99043.63
2019-02-20T16:30:16.734Z,99040.07
2019-02-20T16:32:45.118Z,99050.83
2019-02-20T16:35:14.304Z,99060.26
2019-02-20T16:37:42.608Z,99058.57
2019-02-20T16:40:15.596Z,99054.66
2019-02-20T16:42:43.968Z,99062.67
2019-02-20T16:45:15.416Z,99061.27
2019-02-20T16:47:43.802Z,99063.84
2019-02-20T16:50:14.017Z,99062.64
2019-02-20T16:52:42.351Z,99065.70
2019-02-20T16:55:10.800Z,99065.78
2019-02-20T16:57:39.177Z,99069.64
2019-02-20T17:00:12.109Z,99059.64
2019-02-20T17:02:40.413Z,99059.47
2019-02-20T17:05:13.417Z,99059.88
2019-02-20T17:07:41.695Z,99059.88
2019-02-20T17:10:12.070Z,99068.82
2019-02-20T17:12:40.446Z,99073.88
2019-02-20T17:15:13.778Z,99083.77
2019-02-20T17:17:43.539Z,99081.59
2019-02-20T17:20:19.491Z,99082.20
2019-02-20T17:22:47.897Z,99084.13
2019-02-20T17:25:16.579Z,99086.23
2019-02-20T17:27:45.358Z,99093.31
2019-02-20T17:30:20.486Z,99090.88
2019-02-20T17:32:49.269Z,99092.84
2019-02-20T17:35:17.648Z,99099.66
2019-02-20T17:37:45.962Z,99099.34
2019-02-20T17:40:15.253Z,99101.02
2019-02-20T17:42:43.626Z,99104.77
2019-02-20T17:45:17.757Z,99101.78
2019-02-20T17:47:46.623Z,99102.24
2019-02-20T17:50:20.549Z,99104.34
2019-02-20T17:52:49.232Z,99102.95
2019-02-20T17:55:17.537Z,99110.80
2019-02-20T17:57:45.849Z,99114.11
2019-02-20T18:00:17.459Z,99119.72
2019-02-20T18:02:46.143Z,99120.38
2019-02-20T18:05:14.565Z,99118.62
2019-02-20T18:07:49.857Z,99127.56
2019-02-20T18:10:13.052Z,99127.00
2019-02-20T18:12:41.414Z,99131.20
2019-02-20T18:15:11.595Z,99126.42
2019-02-20T18:17:39.980Z,99131.89
2019-02-20T18:20:10.097Z,99141.52
2019-02-20T18:22:38.753Z,99133.88
2019-02-20T18:25:09.905Z,99136.33
2019-02-20T18:27:38.590Z,99136.66
2019-02-20T18:30:15.343Z,99147.40
2019-02-20T18:32:43.892Z,99140.94
2019-02-20T18:35:17.374Z,99141.58
2019-02-20T18:37:45.804Z,99145.14
2019-02-20T18:40:17.764Z,99149.38
2019-02-20T18:42:46.101Z,99153.17
2019-02-20T18:45:16.051Z,99154.03
2019-02-20T18:47:44.873Z,99154.53
2019-02-20T18:50:16.768Z,99155.39
2019-02-20T18:52:45.088Z,99154.75
2019-02-20T18:55:14.222Z,99159.27
2019-02-20T18:57:42.608Z,99166.41
2019-02-20T19:00:14.074Z,99171.64
2019-02-20T19:02:42.406Z,99172.17
2019-02-20T19:05:11.460Z,99177.78
2019-02-20T19:07:39.805Z,99176.37
2019-02-20T19:10:17.153Z,99180.70
2019-02-20T19:13:08.315Z,99185.74
2019-02-20T19:15:45.879Z,99187.11
2019-02-20T19:18:35.504Z,99187.45
2019-02-20T19:21:09.640Z,99187.52
2019-02-20T19:23:57.162Z,99188.43
2019-02-20T19:26:46.453Z,99190.78
2019-02-20T19:29:35.825Z,99197.20
2019-02-20T19:32:22.445Z,99192.34
2019-02-20T19:35:24.137Z,99161.59
2019-02-20T19:38:05.924Z,99204.47
2019-02-20T19:40:41.004Z,99198.88
2019-02-20T19:43:27.341Z,99202.36
2019-02-20T19:46:16.301Z,99206.75
2019-02-20T19:48:59.519Z,99209.36
2019-02-20T19:51:33.888Z,99211.20
2019-02-20T19:54:11.166Z,99213.92
2019-02-20T19:56:48.370Z,99218.88
2019-02-20T19:59:29.108Z,99212.22
2019-02-20T20:02:06.292Z,99212.26
2019-02-20T20:04:50.092Z,99217.94
2019-02-20T20:07:36.637Z,99212.34
2019-02-20T20:10:35.511Z,99212.14
2019-02-20T20:13:24.686Z,99216.67
2019-02-20T20:16:12.605Z,99218.03
2019-02-20T20:19:02.246Z,99222.07
2019-02-20T20:21:36.320Z,99224.80
2019-02-20T20:24:31.712Z,99230.03
2019-02-20T20:27:08.808Z,99228.94
2019-02-20T20:30:08.687Z,99231.46
2019-02-20T20:32:53.903Z,99227.19
2019-02-20T20:35:55.270Z,99227.52
2019-02-20T20:38:38.266Z,99230.59
2019-02-20T20:41:26.449Z,99231.36
2019-02-20T20:44:03.494Z,99226.97
2019-02-20T20:46:59.365Z,99225.70
2019-02-20T20:49:31.990Z,99221.91
2019-02-20T20:52:09.412Z,99220.27
2019-02-20T20:55:15.676Z,99221.98
2019-02-20T20:58:02.004Z,99226.64
2019-02-20T21:01:04.448Z,99231.22
2019-02-20T21:04:01.361Z,99230.77
2019-02-20T21:06:55.348Z,99231.19
2019-02-20T21:09:51.232Z,99151.36
2019-02-20T21:12:41.955Z,99226.53
2019-02-20T21:15:16.436Z,99233.98
2019-02-20T21:17:47.945Z,99222.39
2019-02-20T21:20:28.589Z,99227.16
2019-02-20T21:23:19.913Z,99229.59
2019-02-20T21:26:11.454Z,99235.14
2019-02-20T21:28:59.346Z,99236.25
2019-02-20T21:31:33.592Z,99227.29
2019-02-20T21:34:21.869Z,99226.88
2019-02-20T21:37:16.024Z,99229.58
2019-02-20T21:39:53.573Z,99231.05
2019-02-20T21:42:25.052Z,99228.95
2019-02-20T21:45:11.436Z,99235.70
2019-02-20T21:48:06.713Z,99241.72
2019-02-20T21:50:56.529Z,99242.48
2019-02-20T21:53:50.971Z,99236.83
2019-02-20T21:56:22.478Z,99239.69
2019-02-20T21:58:54.106Z,99237.81
2019-02-20T22:01:31.034Z,99245.25
2019-02-20T22:04:02.519Z,99242.92
2019-02-20T22:06:36.679Z,99250.81
2019-02-20T22:09:10.924Z,99245.48
2019-02-20T22:11:51.112Z,99243.12
2019-02-20T22:14:22.590Z,99246.33
2019-02-20T22:17:08.757Z,99249.28
2019-02-20T22:19:52.536Z,99247.09
2019-02-20T22:22:35.888Z,99246.52
2019-02-20T22:25:25.783Z,99252.34
2019-02-20T22:28:16.893Z,99259.08
2019-02-20T22:31:00.415Z,99259.08
2019-02-20T22:33:37.497Z,99260.94
2019-02-20T22:36:14.569Z,99264.80
2019-02-20T22:38:51.588Z,99261.49
2019-02-20T22:41:38.090Z,99263.59
2019-02-20T22:44:29.221Z,99261.97
2019-02-20T22:47:03.663Z,99262.31
2019-02-20T22:49:47.312Z,99260.43
2019-02-20T22:52:33.904Z,99263.55
2019-02-20T22:55:08.181Z,99273.78
2019-02-20T22:57:42.360Z,99267.28
2019-02-20T23:00:49.153Z,99275.45
2019-02-20T23:03:23.467Z,99278.50
2019-02-20T23:06:14.272Z,99269.85
2019-02-20T23:09:14.507Z,99275.35
2019-02-20T23:12:05.841Z,99267.03
2019-02-20T23:14:43.476Z,99270.37
2019-02-20T23:17:11.846Z,99280.33
2019-02-20T23:19:40.173Z,99282.76
2019-02-20T23:22:08.477Z,99277.73
2019-02-20T23:24:36.821Z,99281.88
2019-02-20T23:27:05.540Z,99275.45
2019-02-20T23:29:33.848Z,99275.54
2019-02-20T23:32:02.160Z,99282.17
2019-02-20T23:34:31.314Z,99275.42
2019-02-20T23:36:59.666Z,99275.89
2019-02-20T23:39:28.269Z,99273.23
2019-02-20T23:41:56.569Z,99272.45
2019-02-20T23:44:24.891Z,99270.95
2019-02-20T23:46:53.218Z,99268.17
2019-02-20T23:49:21.542Z,99264.88
2019-02-20T23:51:49.912Z,99268.55
2019-02-20T23:54:18.207Z,99267.72
2019-02-20T23:56:46.529Z,99263.98
2019-02-20T23:59:15.223Z,99264.83
